Time;durP1;ratioP1;P1;durP2;ratioP2;P2;SDS_P1;SDS_P2;PMS_P1;PMS_P2;Temp;Humidity;BMP_temperature;BMP_pressure;BME280_temperature;BME280_humidity;BME280_pressure;Samples;Min_cycle;Max_cycle;Signal;HPM_P1;HPM_P2
2021/12/10 00:00:54;;;;;;;10.20;7.07;;;2.60;1.00;;;;;;4971796;28;20451;-59
2021/12/10 00:03:25;;;;;;;11.03;7.93;;;2.60;1.00;;;;;;4970997;28;20873;-56
2021/12/10 00:06:04;;;;;;;10.60;7.17;;;2.50;1.00;;;;;;4971786;28;20839;-57
2021/12/10 00:08:35;;;;;;;13.37;8.50;;;2.50;1.00;;;;;;4971657;28;20482;-55
2021/12/10 00:11:06;;;;;;;13.83;8.70;;;2.50;1.00;;;;;;4971860;28;20516;-58
2021/12/10 00:13:34;;;;;;;12.67;7.70;;;2.50;1.00;;;;;;4971549;28;20483;-57
2021/12/10 00:16:01;;;;;;;11.50;7.13;;;2.50;1.00;;;;;;4971511;28;21081;-57
2021/12/10 00:18:33;;;;;;;12.30;7.93;;;2.40;1.00;;;;;;4971421;28;20879;-56
2021/12/10 00:21:01;;;;;;;13.47;7.90;;;2.40;1.00;;;;;;4971287;28;20472;-56
2021/12/10 00:23:30;;;;;;;10.67;7.53;;;2.40;1.00;;;;;;4971207;28;20456;-58
2021/12/10 00:25:58;;;;;;;12.10;7.83;;;2.50;1.00;;;;;;4971415;28;20888;-58
2021/12/10 00:28:30;;;;;;;11.67;7.93;;;2.40;1.00;;;;;;4971382;28;20447;-58
2021/12/10 00:31:06;;;;;;;11.30;7.93;;;2.40;1.00;;;;;;4971270;28;20586;-57
2021/12/10 00:33:40;;;;;;;13.20;8.53;;;2.40;1.00;;;;;;4970796;28;20897;-58
2021/12/10 00:36:08;;;;;;;11.00;7.40;;;2.50;1.00;;;;;;4971398;28;20452;-59
2021/12/10 00:38:36;;;;;;;11.43;8.70;;;2.60;1.00;;;;;;4971170;28;20510;-56
2021/12/10 00:41:04;;;;;;;10.60;7.90;;;2.50;1.00;;;;;;4971227;28;20944;-59
2021/12/10 00:43:32;;;;;;;12.87;8.43;;;2.50;1.00;;;;;;4970948;28;20849;-59
2021/12/10 00:45:59;;;;;;;14.57;8.17;;;2.50;1.00;;;;;;4970934;28;20501;-58
2021/12/10 00:48:26;;;;;;;12.57;8.77;;;2.60;1.00;;;;;;4971249;28;20458;-58
2021/12/10 00:50:55;;;;;;;13.90;8.77;;;2.60;1.00;;;;;;4971214;28;20505;-58
2021/12/10 00:53:23;;;;;;;12.97;7.87;;;2.60;1.00;;;;;;4970545;28;21001;-55
2021/12/10 00:55:50;;;;;;;14.13;8.90;;;2.70;1.00;;;;;;4971167;28;20455;-58
2021/12/10 00:58:18;;;;;;;12.87;8.23;;;2.70;1.00;;;;;;4970839;28;20500;-58
2021/12/10 01:00:48;;;;;;;11.40;7.70;;;2.70;1.00;;;;;;4970943;28;20858;-58
2021/12/10 01:03:20;;;;;;;11.90;7.87;;;2.70;1.00;;;;;;4970577;28;20448;-59
2021/12/10 01:05:49;;;;;;;14.87;8.47;;;2.80;1.00;;;;;;4970957;28;20471;-58
2021/12/10 01:08:16;;;;;;;13.00;8.73;;;2.80;1.00;;;;;;4970893;28;20462;-57
2021/12/10 01:10:47;;;;;;;13.77;7.77;;;2.80;1.00;;;;;;4970740;28;20505;-58
2021/12/10 01:13:18;;;;;;;14.13;7.80;;;2.90;1.00;;;;;;4969551;28;20466;-57
2021/12/10 01:16:06;;;;;;;16.43;8.33;;;2.90;1.00;;;;;;4970809;28;20590;-57
2021/12/10 01:24:16;;;;;;;11.73;8.27;;;3.00;1.00;;;;;;4970335;28;20451;-58
2021/12/10 01:26:59;;;;;;;9.50;6.57;;;2.90;1.00;;;;;;4970493;28;20459;-58
2021/12/10 01:29:29;;;;;;;11.37;7.13;;;2.90;1.00;;;;;;4970660;28;20447;-59
2021/12/10 01:31:59;;;;;;;10.00;6.83;;;2.90;1.00;;;;;;4970154;28;20877;-58
2021/12/10 01:34:26;;;;;;;13.00;6.80;;;3.00;1.00;;;;;;4970424;28;20492;-57
2021/12/10 01:36:53;;;;;;;13.17;8.10;;;3.00;1.00;;;;;;4970631;28;20451;-58
2021/12/10 01:39:22;;;;;;;12.30;7.73;;;3.00;1.00;;;;;;4970704;28;20463;-58
2021/12/10 01:41:58;;;;;;;11.37;6.70;;;3.00;1.00;;;;;;4970207;28;20459;-57
2021/12/10 01:44:30;;;;;;;13.73;5.97;;;3.00;1.00;;;;;;4970135;28;20479;-58
2021/12/10 01:47:01;;;;;;;10.80;6.87;;;3.00;1.00;;;;;;4970412;28;20501;-57
2021/12/10 01:49:28;;;;;;;9.60;6.93;;;3.00;1.00;;;;;;4970355;28;20502;-59
2021/12/10 01:51:55;;;;;;;10.33;6.60;;;3.00;1.00;;;;;;4970126;28;20875;-59
2021/12/10 01:54:39;;;;;;;13.70;6.97;;;3.00;1.00;;;;;;4970026;28;20991;-59
2021/12/10 01:57:07;;;;;;;13.03;6.30;;;2.90;1.00;;;;;;4970769;28;20436;-59
2021/12/10 01:59:35;;;;;;;9.33;6.40;;;2.90;1.00;;;;;;4970361;28;20451;-59
2021/12/10 02:02:07;;;;;;;12.33;7.37;;;2.90;1.00;;;;;;4969871;28;20899;-58
2021/12/10 02:04:36;;;;;;;10.47;5.93;;;2.90;1.00;;;;;;4970393;28;20516;-58
2021/12/10 02:07:06;;;;;;;9.23;5.80;;;2.90;1.00;;;;;;4970020;28;20460;-58
2021/12/10 02:09:33;;;;;;;10.50;6.17;;;2.90;1.00;;;;;;4970246;28;20455;-59
2021/12/10 02:12:00;;;;;;;8.57;5.33;;;2.90;1.00;;;;;;4969718;28;20485;-58
2021/12/10 02:14:27;;;;;;;9.80;5.80;;;2.90;1.00;;;;;;4969881;28;20483;-59
2021/12/10 02:16:58;;;;;;;11.57;5.90;;;2.80;1.00;;;;;;4969908;28;20455;-59
2021/12/10 02:19:27;;;;;;;7.67;5.43;;;2.80;1.00;;;;;;4970017;28;20943;-58
2021/12/10 02:21:56;;;;;;;10.90;5.90;;;2.80;1.00;;;;;;4969281;28;20458;-57
2021/12/10 02:24:23;;;;;;;9.57;5.73;;;2.80;1.00;;;;;;4970238;28;20468;-58
2021/12/10 02:26:53;;;;;;;9.00;5.87;;;2.80;1.00;;;;;;4973444;28;20456;-58
2021/12/10 02:29:23;;;;;;;9.37;5.50;;;2.80;1.00;;;;;;4973226;28;20554;-59
2021/12/10 02:31:50;;;;;;;9.20;5.80;;;2.70;1.00;;;;;;4972966;28;20464;-58
2021/12/10 02:34:17;;;;;;;11.07;5.73;;;2.70;1.00;;;;;;4973162;28;20490;-57
2021/12/10 02:36:44;;;;;;;9.90;6.10;;;2.70;1.00;;;;;;4973151;28;20940;-59
2021/12/10 02:39:14;;;;;;;14.47;6.17;;;2.80;1.00;;;;;;4973248;28;20480;-58
2021/12/10 02:41:43;;;;;;;9.47;5.23;;;2.80;1.00;;;;;;4972818;28;20456;-58
2021/12/10 02:44:13;;;;;;;8.93;4.87;;;2.80;1.00;;;;;;4972832;28;20472;-59
2021/12/10 02:46:40;;;;;;;7.83;4.70;;;2.80;1.00;;;;;;4972870;28;20505;-58
2021/12/10 02:49:09;;;;;;;14.03;6.17;;;2.80;1.00;;;;;;4973132;28;20451;-58
2021/12/10 02:51:36;;;;;;;8.70;4.63;;;2.80;1.00;;;;;;4972544;28;20456;-59
2021/12/10 02:54:04;;;;;;;6.47;4.23;;;2.80;1.00;;;;;;4973181;28;20475;-57
2021/12/10 02:56:33;;;;;;;3.10;2.30;;;2.80;1.00;;;;;;4973612;28;20728;-58
2021/12/10 02:59:01;;;;;;;7.30;4.67;;;2.70;1.00;;;;;;4972906;28;20508;-58
2021/12/10 03:01:32;;;;;;;11.13;5.23;;;2.80;1.00;;;;;;4972354;28;20827;-58
2021/12/10 03:03:59;;;;;;;9.27;4.40;;;2.70;1.00;;;;;;4972973;28;20483;-58
2021/12/10 03:06:29;;;;;;;6.97;3.90;;;2.70;1.00;;;;;;4972922;28;20474;-58
2021/12/10 03:08:57;;;;;;;8.40;4.40;;;2.70;1.00;;;;;;4972760;28;20479;-56
2021/12/10 03:11:28;;;;;;;8.53;3.90;;;2.60;1.00;;;;;;4972662;28;20506;-59
2021/12/10 03:13:58;;;;;;;7.43;4.20;;;2.70;1.00;;;;;;4972301;28;20896;-58
2021/12/10 03:16:25;;;;;;;7.40;4.03;;;2.70;1.00;;;;;;4972262;28;20498;-59
2021/12/10 03:18:52;;;;;;;6.43;4.17;;;2.70;1.00;;;;;;4972388;28;20507;-58
2021/12/10 03:21:19;;;;;;;10.43;4.37;;;2.60;1.00;;;;;;4972206;28;20460;-58
2021/12/10 03:23:48;;;;;;;8.57;4.00;;;2.60;1.00;;;;;;4972341;28;20529;-59
2021/12/10 03:26:18;;;;;;;7.07;3.90;;;2.60;1.00;;;;;;4972583;28;20829;-58
2021/12/10 03:28:47;;;;;;;10.63;3.97;;;2.60;1.00;;;;;;4972770;28;20482;-57
2021/12/10 03:31:16;;;;;;;7.53;3.27;;;2.60;1.00;;;;;;4972071;28;20506;-57
2021/12/10 03:33:43;;;;;;;7.47;3.10;;;2.60;1.00;;;;;;4972293;28;20483;-58
2021/12/10 03:36:11;;;;;;;9.10;3.57;;;2.60;1.00;;;;;;4971899;28;21018;-59
2021/12/10 03:38:39;;;;;;;7.03;3.77;;;2.60;1.00;;;;;;4972620;28;20451;-57
2021/12/10 03:41:07;;;;;;;6.30;3.57;;;2.60;1.00;;;;;;4971796;28;20451;-59
2021/12/10 03:43:34;;;;;;;9.57;4.33;;;2.60;1.00;;;;;;4972310;28;20455;-57
2021/12/10 03:46:02;;;;;;;7.20;3.30;;;2.60;1.00;;;;;;4972332;28;20963;-58
2021/12/10 03:48:33;;;;;;;4.70;2.80;;;2.60;1.00;;;;;;4972217;28;21055;-57
2021/12/10 03:51:03;;;;;;;10.33;3.20;;;2.60;1.00;;;;;;4972251;28;20466;-58
2021/12/10 03:53:29;;;;;;;6.57;2.67;;;2.60;1.00;;;;;;4971801;28;20870;-57
2021/12/10 03:56:00;;;;;;;7.17;3.00;;;2.60;1.00;;;;;;4971962;28;20544;-57
2021/12/10 03:58:27;;;;;;;4.37;2.67;;;2.60;1.00;;;;;;4972116;28;20456;-59
2021/12/10 04:00:56;;;;;;;5.83;2.83;;;2.60;1.00;;;;;;4972111;28;20502;-59
2021/12/10 04:03:26;;;;;;;5.07;2.60;;;2.60;1.00;;;;;;4971511;28;20863;-59
2021/12/10 04:05:54;;;;;;;5.23;2.67;;;2.60;1.00;;;;;;4971712;28;20447;-57
2021/12/10 04:08:21;;;;;;;4.50;2.33;;;2.60;1.00;;;;;;4971946;28;20458;-57
2021/12/10 04:10:49;;;;;;;7.60;3.07;;;2.60;1.00;;;;;;4971809;28;20451;-58
2021/12/10 04:13:18;;;;;;;4.67;2.27;;;2.60;1.00;;;;;;4971440;28;20455;-58
2021/12/10 04:15:45;;;;;;;11.03;2.80;;;2.60;1.00;;;;;;4971577;28;20496;-55
2021/12/10 04:18:13;;;;;;;10.73;2.77;;;2.60;1.00;;;;;;4971692;28;20502;-59
2021/12/10 04:20:41;;;;;;;6.37;2.33;;;2.60;1.00;;;;;;4971558;28;20463;-55
2021/12/10 04:23:12;;;;;;;4.97;2.00;;;2.60;1.00;;;;;;4971328;28;20509;-57
2021/12/10 04:25:38;;;;;;;6.20;2.90;;;2.60;1.00;;;;;;4971547;28;20501;-59
2021/12/10 04:28:08;;;;;;;4.87;2.40;;;2.60;1.00;;;;;;4971552;28;20497;-58
2021/12/10 04:30:39;;;;;;;7.90;1.73;;;2.50;1.00;;;;;;4971704;28;20538;-58
2021/12/10 04:33:07;;;;;;;6.30;2.80;;;2.50;1.00;;;;;;4970329;28;20464;-58
2021/12/10 04:35:34;;;;;;;5.47;2.20;;;2.60;1.00;;;;;;4971445;28;20491;-58
2021/12/10 04:38:01;;;;;;;8.67;2.40;;;2.60;1.00;;;;;;4971220;28;20463;-57
2021/12/10 04:40:30;;;;;;;3.90;2.07;;;2.50;1.00;;;;;;4971360;28;20513;-59
2021/12/10 04:42:57;;;;;;;7.57;2.13;;;2.50;1.00;;;;;;4970698;28;20959;-55
2021/12/10 04:45:25;;;;;;;4.83;2.13;;;2.50;1.00;;;;;;4971000;28;20472;-57
2021/12/10 04:47:52;;;;;;;5.13;1.87;;;2.50;1.00;;;;;;4971010;28;20463;-55
2021/12/10 04:50:22;;;;;;;8.57;1.97;;;2.50;1.00;;;;;;4971354;28;20460;-56
2021/12/10 04:52:49;;;;;;;7.40;2.33;;;2.50;1.00;;;;;;4970930;28;20458;-57
2021/12/10 04:55:17;;;;;;;6.03;2.03;;;2.50;1.00;;;;;;4971114;28;20549;-59
2021/12/10 04:57:46;;;;;;;6.83;2.00;;;2.50;1.00;;;;;;4970911;28;20460;-58
2021/12/10 05:00:19;;;;;;;4.13;2.00;;;2.50;1.00;;;;;;4970798;28;20511;-59
2021/12/10 05:02:46;;;;;;;4.23;1.80;;;2.50;1.00;;;;;;4970785;28;20459;-57
2021/12/10 05:05:13;;;;;;;7.80;2.00;;;2.50;1.00;;;;;;4970706;28;20468;-58
2021/12/10 05:07:41;;;;;;;4.77;1.80;;;2.60;1.00;;;;;;4970804;28;20462;-58
2021/12/10 05:10:11;;;;;;;7.77;2.03;;;2.60;1.00;;;;;;4970847;28;20455;-57
2021/12/10 05:12:38;;;;;;;6.27;1.80;;;2.60;1.00;;;;;;4970236;28;20877;-58
2021/12/10 05:15:09;;;;;;;5.23;2.00;;;2.50;1.00;;;;;;4970826;28;20487;-58
2021/12/10 05:17:40;;;;;;;7.70;1.70;;;2.50;1.00;;;;;;4970941;28;20452;-60
2021/12/10 05:20:12;;;;;;;5.57;1.87;;;2.50;1.00;;;;;;4967924;28;20456;-57
2021/12/10 05:22:39;;;;;;;5.90;1.83;;;2.50;1.00;;;;;;4970223;28;20467;-59
2021/12/10 05:25:07;;;;;;;5.30;1.73;;;2.50;1.00;;;;;;4983702;28;20471;-58
2021/12/10 05:27:34;;;;;;;2.87;1.47;;;2.50;1.00;;;;;;4968786;28;20487;-60
2021/12/10 05:30:01;;;;;;;4.63;2.40;;;2.50;1.00;;;;;;4970008;28;20459;-58
2021/12/10 05:32:29;;;;;;;3.40;1.83;;;2.50;1.00;;;;;;4970019;28;20463;-58
2021/12/10 05:34:56;;;;;;;5.77;2.00;;;2.50;1.00;;;;;;4969940;28;20475;-57
2021/12/10 05:37:23;;;;;;;7.80;2.33;;;2.50;1.00;;;;;;4970163;28;20451;-59
2021/12/10 05:39:49;;;;;;;8.30;2.23;;;2.50;1.00;;;;;;4970107;28;20477;-59
2021/12/10 05:42:16;;;;;;;11.57;2.47;;;2.50;1.00;;;;;;4970012;28;20454;-58
2021/12/10 05:44:43;;;;;;;6.90;2.20;;;2.50;1.00;;;;;;4970308;28;20471;-58
2021/12/10 05:47:10;;;;;;;13.37;2.90;;;2.50;1.00;;;;;;4969970;28;20503;-58
2021/12/10 05:49:38;;;;;;;7.80;2.27;;;2.50;1.00;;;;;;4970218;28;20463;-58
2021/12/10 05:52:06;;;;;;;3.83;2.30;;;2.50;1.00;;;;;;4969638;28;20448;-58
2021/12/10 05:54:34;;;;;;;6.60;2.00;;;2.60;1.00;;;;;;4970395;28;20507;-58
2021/12/10 05:57:00;;;;;;;5.10;1.80;;;2.50;1.00;;;;;;4969932;28;20495;-58
2021/12/10 05:59:27;;;;;;;5.40;2.50;;;2.60;1.00;;;;;;4970552;28;20451;-58
2021/12/10 06:01:54;;;;;;;5.70;2.20;;;2.60;1.00;;;;;;4973264;28;20489;-58
2021/12/10 06:04:23;;;;;;;8.67;2.43;;;2.60;1.00;;;;;;4973168;28;20589;-58
2021/12/10 06:06:51;;;;;;;10.57;2.53;;;2.60;1.00;;;;;;4973205;28;20997;-59
2021/12/10 06:09:18;;;;;;;5.40;2.40;;;2.50;1.00;;;;;;4973563;28;20873;-59
2021/12/10 06:11:45;;;;;;;3.30;2.43;;;2.60;1.00;;;;;;4973155;28;20450;-61
2021/12/10 06:14:12;;;;;;;4.63;1.80;;;2.50;1.00;;;;;;4971991;28;20475;-62
2021/12/10 06:16:39;;;;;;;5.80;2.47;;;2.50;1.00;;;;;;4962916;28;20490;-59
2021/12/10 06:19:07;;;;;;;10.43;2.50;;;2.40;1.00;;;;;;4972871;28;20452;-60
2021/12/10 06:21:35;;;;;;;6.40;2.37;;;2.40;1.00;;;;;;4972478;28;20578;-62
2021/12/10 06:24:04;;;;;;;6.47;2.00;;;2.50;1.00;;;;;;4972669;28;20478;-61
2021/12/10 06:26:31;;;;;;;3.83;1.63;;;2.50;1.00;;;;;;4972636;28;20452;-60
2021/12/10 06:28:58;;;;;;;7.90;3.70;;;2.60;1.00;;;;;;4973286;28;20509;-60
2021/12/10 06:31:25;;;;;;;5.80;2.43;;;2.50;1.00;;;;;;4972246;28;20490;-58
2021/12/10 06:33:53;;;;;;;7.17;2.40;;;2.60;1.00;;;;;;4972927;28;20490;-60
2021/12/10 06:36:21;;;;;;;6.13;2.20;;;2.50;1.00;;;;;;4972426;28;20495;-60
2021/12/10 06:38:48;;;;;;;2.47;1.63;;;2.60;99.90;;;;;;4972710;28;20446;-59
2021/12/10 06:41:17;;;;;;;4.73;2.07;;;2.60;99.90;;;;;;4972385;28;20822;-60
2021/12/10 06:43:44;;;;;;;4.43;1.70;;;2.70;99.90;;;;;;4972381;28;20871;-60
2021/12/10 06:46:12;;;;;;;5.53;1.43;;;2.70;99.90;;;;;;4972263;28;20470;-62
2021/12/10 06:48:39;;;;;;;5.07;1.73;;;2.70;99.90;;;;;;4972461;28;20592;-60
2021/12/10 06:51:10;;;;;;;3.93;2.50;;;2.70;99.90;;;;;;4972212;28;20474;-60
2021/12/10 06:53:39;;;;;;;6.20;2.20;;;2.70;99.90;;;;;;4972623;28;20451;-61
2021/12/10 06:56:06;;;;;;;3.37;2.00;;;2.70;99.90;;;;;;4971858;28;20488;-60
2021/12/10 06:58:35;;;;;;;5.23;2.10;;;2.70;99.90;;;;;;4971703;28;20448;-59
2021/12/10 07:01:06;;;;;;;5.57;2.50;;;2.70;99.90;;;;;;4971801;28;20463;-61
2021/12/10 07:03:34;;;;;;;4.80;2.30;;;2.70;99.90;;;;;;4972429;28;20459;-57
2021/12/10 07:06:02;;;;;;;7.10;1.97;;;2.60;99.90;;;;;;4972191;28;20820;-58
2021/12/10 07:08:32;;;;;;;4.53;1.77;;;2.60;99.90;;;;;;4972119;28;20497;-57
2021/12/10 07:10:59;;;;;;;6.40;2.57;;;2.60;99.90;;;;;;4971303;28;20459;-56
2021/12/10 07:13:28;;;;;;;4.13;1.83;;;2.60;99.90;;;;;;4971010;28;20592;-60
2021/12/10 07:15:56;;;;;;;7.30;2.50;;;2.60;99.90;;;;;;4971589;28;20493;-59
2021/12/10 07:18:23;;;;;;;5.47;1.83;;;2.70;99.90;;;;;;4971970;28;20516;-60
2021/12/10 07:20:51;;;;;;;4.60;2.10;;;2.60;99.90;;;;;;4971929;28;20833;-59
2021/12/10 07:23:18;;;;;;;9.33;2.30;;;2.60;99.90;;;;;;4971597;28;20571;-59
2021/12/10 07:25:45;;;;;;;6.20;2.00;;;2.50;99.90;;;;;;4971393;28;20844;-60
2021/12/10 07:28:12;;;;;;;5.53;2.30;;;2.50;99.90;;;;;;4971586;28;20462;-54
2021/12/10 07:30:38;;;;;;;4.70;1.80;;;2.50;99.90;;;;;;4971865;28;20462;-59
2021/12/10 07:33:07;;;;;;;3.53;1.87;;;2.50;99.90;;;;;;4971588;28;20856;-59
2021/12/10 07:35:34;;;;;;;4.10;2.33;;;2.50;99.90;;;;;;4971596;28;20577;-58
2021/12/10 07:38:01;;;;;;;5.97;2.20;;;2.50;99.90;;;;;;4971834;28;20489;-54
2021/12/10 07:40:32;;;;;;;5.13;2.20;;;2.50;99.90;;;;;;4971600;28;20521;-58
2021/12/10 07:42:59;;;;;;;9.50;1.87;;;2.60;99.90;;;;;;4971321;28;20466;-56
2021/12/10 07:45:27;;;;;;;3.33;1.93;;;2.60;99.90;;;;;;4971509;28;20937;-59
2021/12/10 07:47:54;;;;;;;6.90;2.03;;;2.70;99.90;;;;;;4971504;28;20451;-58
2021/12/10 07:50:26;;;;;;;2.70;1.67;;;2.60;99.90;;;;;;4971435;28;20846;-59
2021/12/10 07:52:56;;;;;;;4.13;2.07;;;2.60;99.90;;;;;;4971082;28;20478;-58
2021/12/10 07:55:25;;;;;;;5.00;1.83;;;2.60;99.90;;;;;;4970937;28;20505;-61
2021/12/10 07:57:52;;;;;;;7.57;1.77;;;2.70;99.90;;;;;;4971164;28;21072;-60
2021/12/10 08:00:21;;;;;;;5.93;2.13;;;2.60;99.90;;;;;;4971424;28;20829;-61
2021/12/10 08:02:48;;;;;;;4.53;1.80;;;2.70;99.90;;;;;;4971229;28;20448;-59
2021/12/10 08:05:17;;;;;;;5.77;1.90;;;2.70;99.90;;;;;;4971074;28;20506;-58
2021/12/10 08:07:45;;;;;;;5.30;1.77;;;2.70;99.90;;;;;;4971012;28;20448;-59
2021/12/10 08:10:14;;;;;;;2.20;0.97;;;2.70;99.90;;;;;;4971223;28;20459;-59
2021/12/10 08:12:41;;;;;;;4.17;1.37;;;2.70;99.90;;;;;;4970765;28;20456;-57
2021/12/10 08:15:10;;;;;;;4.67;2.30;;;2.70;99.90;;;;;;4970910;28;20486;-59
2021/12/10 08:17:37;;;;;;;4.93;2.23;;;2.70;99.90;;;;;;4970900;28;20502;-60
2021/12/10 08:20:07;;;;;;;23.80;1.80;;;2.70;99.90;;;;;;4971195;28;20500;-60
2021/12/10 08:22:33;;;;;;;4.97;2.10;;;2.80;99.90;;;;;;4970391;28;20456;-58
2021/12/10 08:25:01;;;;;;;8.63;1.90;;;2.80;99.90;;;;;;4970869;28;20475;-61
2021/12/10 08:27:28;;;;;;;2.63;1.70;;;2.90;99.90;;;;;;4970815;28;20933;-60
2021/12/10 08:29:58;;;;;;;5.97;1.20;;;2.90;99.90;;;;;;4971171;28;20481;-61
2021/12/10 08:32:25;;;;;;;5.17;1.70;;;2.90;99.90;;;;;;4970820;28;20452;-61
2021/12/10 08:34:52;;;;;;;4.87;1.87;;;2.90;99.90;;;;;;4970310;28;20519;-63
2021/12/10 08:37:19;;;;;;;7.13;2.13;;;2.90;99.90;;;;;;4970580;28;20487;-61
2021/12/10 08:39:47;;;;;;;5.53;2.10;;;3.00;99.90;;;;;;4971011;28;20939;-61
2021/12/10 08:42:16;;;;;;;5.53;1.50;;;3.00;99.90;;;;;;4970542;28;20456;-61
2021/12/10 08:44:45;;;;;;;8.80;2.37;;;3.00;99.90;;;;;;4970521;28;20475;-59
2021/12/10 08:47:12;;;;;;;2.97;1.70;;;3.00;99.90;;;;;;4970191;28;20487;-59
2021/12/10 08:49:40;;;;;;;5.87;2.00;;;3.10;99.90;;;;;;4970725;28;20490;-57
2021/12/10 08:52:09;;;;;;;4.70;1.90;;;3.10;99.90;;;;;;4970231;28;20456;-59
2021/12/10 08:54:38;;;;;;;6.83;2.20;;;3.10;99.90;;;;;;4970460;28;20518;-57
2021/12/10 08:57:07;;;;;;;2.13;1.70;;;3.20;99.90;;;;;;4970283;28;20952;-59
2021/12/10 08:59:38;;;;;;;6.50;1.97;;;3.20;99.90;;;;;;4970387;28;21013;-62
2021/12/10 09:02:08;;;;;;;8.57;2.23;;;3.20;99.90;;;;;;4970328;28;20465;-63
2021/12/10 09:04:35;;;;;;;3.83;1.70;;;3.20;99.90;;;;;;4970576;28;20542;-60
2021/12/10 09:07:06;;;;;;;8.57;2.30;;;3.30;99.90;;;;;;4969930;28;20455;-63
2021/12/10 09:09:39;;;;;;;6.57;1.63;;;3.40;99.90;;;;;;4970254;28;20456;-63
2021/12/10 09:12:12;;;;;;;4.47;1.80;;;3.40;99.90;;;;;;4970047;28;20462;-62
2021/12/10 09:14:45;;;;;;;5.27;1.70;;;3.40;99.90;;;;;;4970585;28;20602;-60
2021/12/10 09:17:13;;;;;;;4.37;1.53;;;3.50;99.90;;;;;;4969999;28;20586;-61
2021/12/10 09:19:41;;;;;;;9.20;2.17;;;3.60;99.90;;;;;;4970073;28;20963;-60
2021/12/10 09:22:10;;;;;;;6.13;1.77;;;3.70;99.90;;;;;;4969503;28;20452;-61
2021/12/10 09:24:37;;;;;;;4.10;2.10;;;3.70;99.90;;;;;;4970074;28;20475;-60
2021/12/10 09:27:05;;;;;;;2.57;1.87;;;3.80;99.90;;;;;;4969760;28;20452;-61
2021/12/10 09:29:35;;;;;;;5.43;1.97;;;3.80;99.90;;;;;;4969822;28;20513;-60
2021/12/10 09:32:05;;;;;;;8.07;1.67;;;3.90;99.90;;;;;;4969922;28;20452;-60
2021/12/10 09:34:31;;;;;;;4.80;2.00;;;4.00;99.90;;;;;;4968836;28;20487;-61
2021/12/10 09:36:58;;;;;;;1.20;0.90;;;4.00;99.90;;;;;;4969432;28;20496;-60
2021/12/10 09:39:26;;;;;;;8.17;1.87;;;4.10;99.90;;;;;;4969619;28;20452;-60
2021/12/10 09:41:54;;;;;;;9.47;1.87;;;4.10;99.90;;;;;;4969628;28;20960;-60
2021/12/10 09:44:23;;;;;;;3.77;1.70;;;4.10;99.90;;;;;;4969971;28;20471;-60
2021/12/10 09:46:51;;;;;;;2.43;1.43;;;4.20;99.90;;;;;;4969665;28;20463;-60
2021/12/10 09:49:23;;;;;;;4.07;1.90;;;4.30;99.90;;;;;;4969819;28;20677;-61
2021/12/10 09:51:53;;;;;;;6.10;1.57;;;4.30;99.90;;;;;;4969233;28;20537;-61
2021/12/10 09:54:22;;;;;;;3.27;1.40;;;4.30;99.90;;;;;;4969993;28;20225;-65
2021/12/10 09:56:53;;;;;;;2.63;1.50;;;4.40;99.90;;;;;;4969710;28;20282;-60
2021/12/10 09:59:21;;;;;;;2.50;1.57;;;4.50;99.90;;;;;;4969960;28;20209;-62
2021/12/10 10:01:51;;;;;;;7.53;1.73;;;4.40;99.90;;;;;;4969918;28;20240;-61
2021/12/10 10:04:26;;;;;;;5.53;1.90;;;4.30;99.90;;;;;;4969534;28;20475;-61
2021/12/10 10:06:57;;;;;;;6.87;1.63;;;4.30;99.90;;;;;;4969361;28;20224;-61
2021/12/10 10:09:25;;;;;;;5.10;1.87;;;4.30;99.90;;;;;;4969960;28;20452;-61
2021/12/10 10:11:55;;;;;;;5.10;1.73;;;4.20;99.90;;;;;;4969123;28;20460;-60
2021/12/10 10:14:22;;;;;;;4.63;2.13;;;4.30;99.90;;;;;;4969479;28;21192;-60
2021/12/10 10:16:50;;;;;;;5.83;1.50;;;4.10;99.90;;;;;;4968772;28;20998;-62
2021/12/10 10:19:17;;;;;;;5.40;1.97;;;4.20;99.90;;;;;;4969744;28;20463;-61
2021/12/10 10:21:48;;;;;;;3.17;1.40;;;4.30;99.90;;;;;;4968995;28;20460;-61
2021/12/10 10:24:16;;;;;;;4.07;1.80;;;4.30;99.90;;;;;;4969393;28;20479;-59
2021/12/10 10:26:48;;;;;;;5.80;1.80;;;4.20;99.90;;;;;;4969048;28;20547;-60
2021/12/10 10:29:18;;;;;;;3.80;1.73;;;4.30;99.90;;;;;;4968947;28;20266;-60
2021/12/10 10:31:49;;;;;;;6.00;1.77;;;4.40;99.90;;;;;;4969081;28;20509;-60
2021/12/10 10:34:16;;;;;;;4.30;1.77;;;4.40;99.90;;;;;;4969095;28;20612;-62
2021/12/10 10:36:45;;;;;;;4.63;1.80;;;4.30;99.90;;;;;;4968736;28;20899;-61
2021/12/10 10:39:14;;;;;;;5.17;1.60;;;4.40;99.90;;;;;;4969239;28;20923;-60
2021/12/10 10:41:43;;;;;;;4.07;1.73;;;4.50;99.90;;;;;;4968660;28;20861;-61
2021/12/10 10:44:10;;;;;;;4.80;1.90;;;4.50;99.90;;;;;;4969140;28;20233;-61
2021/12/10 10:46:37;;;;;;;5.43;1.80;;;4.50;99.90;;;;;;4970653;28;20750;-59
2021/12/10 10:49:04;;;;;;;5.07;1.47;;;4.50;99.90;;;;;;4972344;28;20208;-61
2021/12/10 10:51:34;;;;;;;5.50;1.47;;;4.50;99.90;;;;;;4971878;28;20211;-61
2021/12/10 10:54:05;;;;;;;3.10;1.53;;;4.50;99.90;;;;;;4972300;28;20240;-61
2021/12/10 10:56:39;;;;;;;3.93;1.20;;;4.50;99.90;;;;;;4971988;28;20869;-58
2021/12/10 10:59:14;;;;;;;2.77;1.40;;;4.50;99.90;;;;;;4972945;28;20580;-60
2021/12/10 11:01:46;;;;;;;4.60;1.60;;;4.50;99.90;;;;;;4971881;28;20209;-59
2021/12/10 11:04:18;;;;;;;3.40;1.20;;;4.60;99.90;;;;;;4972188;28;20737;-61
2021/12/10 11:06:50;;;;;;;4.20;1.47;;;4.60;99.90;;;;;;4972245;28;20205;-61
2021/12/10 11:09:21;;;;;;;4.33;1.40;;;4.70;99.90;;;;;;4972797;28;20212;-61
2021/12/10 11:11:50;;;;;;;3.40;1.20;;;4.80;99.90;;;;;;4971830;28;20236;-58
2021/12/10 11:14:21;;;;;;;3.87;1.17;;;4.80;99.90;;;;;;4971734;28;20303;-59
2021/12/10 11:16:51;;;;;;;4.60;1.47;;;4.80;99.90;;;;;;4971610;28;20217;-58
2021/12/10 11:19:20;;;;;;;1.87;1.13;;;4.90;99.90;;;;;;4971753;28;20694;-59
2021/12/10 11:21:49;;;;;;;3.90;1.27;;;5.00;99.90;;;;;;4971412;28;20216;-59
2021/12/10 11:24:21;;;;;;;3.70;1.33;;;5.00;99.90;;;;;;4971715;28;20612;-61
2021/12/10 11:26:56;;;;;;;7.83;1.53;;;5.00;99.90;;;;;;4971455;28;20301;-61
2021/12/10 11:29:39;;;;;;;3.00;1.40;;;5.10;99.90;;;;;;4972026;28;20670;-61
2021/12/10 11:32:09;;;;;;;3.57;1.40;;;5.10;99.90;;;;;;4971580;28;20216;-61
2021/12/10 11:34:45;;;;;;;4.07;1.43;;;5.20;99.90;;;;;;4972015;28;20245;-61
2021/12/10 11:37:14;;;;;;;3.80;1.63;;;5.30;99.90;;;;;;4971478;28;20293;-62
2021/12/10 11:39:52;;;;;;;7.43;1.70;;;5.20;99.90;;;;;;4971616;28;20209;-62
2021/12/10 11:42:38;;;;;;;3.10;1.00;;;5.30;99.90;;;;;;4971290;28;20222;-60
2021/12/10 11:45:30;;;;;;;4.17;1.27;;;5.10;99.90;;;;;;4971548;28;20324;-58
2021/12/10 11:48:06;;;;;;;3.53;1.27;;;5.10;99.90;;;;;;4971591;28;20587;-58
2021/12/10 11:50:34;;;;;;;5.43;1.43;;;5.00;99.90;;;;;;4971249;28;20217;-60
2021/12/10 11:53:02;;;;;;;3.33;1.20;;;5.00;99.90;;;;;;4971354;28;20268;-60
2021/12/10 11:55:32;;;;;;;4.03;1.37;;;5.00;99.90;;;;;;4971113;28;20231;-60
2021/12/10 11:57:58;;;;;;;4.73;1.20;;;5.20;99.90;;;;;;4970720;28;20223;-60
2021/12/10 12:00:29;;;;;;;3.93;1.20;;;5.20;99.90;;;;;;4971458;28;20217;-60
2021/12/10 12:02:58;;;;;;;2.07;1.37;;;5.10;99.90;;;;;;4970810;28;20610;-61
2021/12/10 12:05:29;;;;;;;5.83;1.57;;;5.30;99.90;;;;;;4970982;28;20238;-59
2021/12/10 12:07:57;;;;;;;2.73;1.27;;;5.30;99.90;;;;;;4971068;28;20257;-60
2021/12/10 12:10:27;;;;;;;2.93;1.10;;;5.30;99.90;;;;;;4971088;28;20219;-60
2021/12/10 12:12:59;;;;;;;5.10;1.13;;;5.30;99.90;;;;;;4970921;28;20217;-60
2021/12/10 12:15:29;;;;;;;8.77;1.50;;;5.30;99.90;;;;;;4970832;28;20234;-61
2021/12/10 12:17:59;;;;;;;4.33;1.77;;;5.50;99.90;;;;;;4970815;28;20227;-62
2021/12/10 12:20:36;;;;;;;2.87;1.37;;;5.50;99.90;;;;;;4971237;28;20264;-62
2021/12/10 12:25:56;;;;;;;3.67;1.50;;;5.60;99.90;;;;;;4970677;28;20222;-61
2021/12/10 12:28:27;;;;;;;4.57;1.20;;;5.60;99.90;;;;;;4971319;28;20221;-61
2021/12/10 12:30:57;;;;;;;3.57;1.37;;;5.60;99.90;;;;;;4971322;28;20301;-59
2021/12/10 12:33:27;;;;;;;4.03;1.17;;;5.60;99.90;;;;;;4970367;28;20215;-61
2021/12/10 12:35:55;;;;;;;4.30;1.67;;;5.60;99.90;;;;;;4970697;28;20217;-61
2021/12/10 12:38:27;;;;;;;4.83;1.17;;;5.60;99.90;;;;;;4970548;28;20380;-61
2021/12/10 12:41:11;;;;;;;5.63;1.63;;;5.60;99.90;;;;;;4970987;28;20655;-61
2021/12/10 12:43:41;;;;;;;2.80;1.03;;;5.50;99.90;;;;;;4971129;28;20198;-61
2021/12/10 12:46:10;;;;;;;4.00;1.43;;;5.40;99.90;;;;;;4970878;28;20657;-61
2021/12/10 12:48:38;;;;;;;4.00;2.00;;;5.40;99.90;;;;;;4970539;28;20215;-62
2021/12/10 12:51:13;;;;;;;9.53;1.53;;;5.30;99.90;;;;;;4970553;28;20313;-62
2021/12/10 12:53:40;;;;;;;3.90;1.40;;;5.30;99.90;;;;;;4970831;28;20208;-61
2021/12/10 12:56:11;;;;;;;3.00;1.40;;;5.30;99.90;;;;;;4970715;28;20211;-61
2021/12/10 12:58:44;;;;;;;5.97;1.63;;;5.30;99.90;;;;;;4970661;28;20242;-58
2021/12/10 13:01:16;;;;;;;4.37;2.10;;;5.30;99.90;;;;;;4970415;28;20205;-57
2021/12/10 13:03:47;;;;;;;2.77;1.63;;;5.20;99.90;;;;;;4970670;28;20746;-61
2021/12/10 13:06:18;;;;;;;8.07;2.20;;;5.10;99.90;;;;;;4970221;28;20213;-61
2021/12/10 13:08:53;;;;;;;3.83;1.70;;;5.10;99.90;;;;;;4969765;28;20209;-61
2021/12/10 13:11:25;;;;;;;4.10;1.80;;;5.00;99.90;;;;;;4969640;28;20302;-60
2021/12/10 13:14:00;;;;;;;2.70;1.10;;;5.10;99.90;;;;;;4970166;28;20269;-60
2021/12/10 13:16:39;;;;;;;4.90;1.10;;;4.90;99.90;;;;;;4970225;28;20211;-59
2021/12/10 13:19:06;;;;;;;3.90;1.60;;;4.90;99.90;;;;;;4970491;28;20208;-60